Time;durP1;ratioP1;P1;durP2;ratioP2;P2;SDS_P1;SDS_P2;PMS_P1;PMS_P2;Temp;Humidity;BMP_temperature;BMP_pressure;BME280_temperature;BME280_humidity;BME280_pressure;Samples;Min_cycle;Max_cycle;Signal;HPM_P1;HPM_P2
2022/07/07 00:04:29;;;;;;;0.63;0.32;;;;;;;;;;20912665;28;20233;-86
2022/07/07 00:14:30;;;;;;;0.50;0.40;;;;;;;;;;20879340;28;20215;-86
2022/07/07 00:24:32;;;;;;;0.70;0.40;;;;;;;;;;20895193;28;20218;-85
2022/07/07 00:34:34;;;;;;;0.40;0.30;;;;;;;;;;20878239;28;20283;-85
2022/07/07 00:44:36;;;;;;;0.33;0.30;;;;;;;;;;20894197;28;20217;-86
2022/07/07 00:54:37;;;;;;;1.10;0.50;;;;;;;;;;20898178;28;20289;-85
2022/07/07 01:04:39;;;;;;;0.67;0.30;;;;;;;;;;20892639;28;20686;-85
2022/07/07 01:14:41;;;;;;;0.33;0.30;;;;;;;;;;20876426;28;20229;-86
2022/07/07 01:24:43;;;;;;;1.20;0.43;;;;;;;;;;20879190;28;20202;-87
2022/07/07 01:34:46;;;;;;;0.60;0.40;;;;;;;;;;20891739;28;20221;-87
2022/07/07 01:44:51;;;;;;;2.53;0.50;;;;;;;;;;20907655;28;20207;-86
2022/07/07 01:54:53;;;;;;;0.63;0.40;;;;;;;;;;20895396;28;20260;-88
2022/07/07 02:04:55;;;;;;;2.47;0.40;;;;;;;;;;20906108;28;20209;-86
2022/07/07 02:15:06;;;;;;;0.30;0.20;;;;;;;;;;20891131;28;20705;-87
2022/07/07 02:25:08;;;;;;;1.10;0.50;;;;;;;;;;20904468;28;20221;-88
2022/07/07 02:35:09;;;;;;;1.60;0.40;;;;;;;;;;20888027;28;20247;-86
2022/07/07 02:45:11;;;;;;;1.07;0.53;;;;;;;;;;20909203;28;20699;-87
2022/07/07 02:55:13;;;;;;;1.30;0.43;;;;;;;;;;20903032;28;20230;-87
2022/07/07 03:05:15;;;;;;;0.43;0.37;;;;;;;;;;20902075;28;20224;-87
2022/07/07 03:15:17;;;;;;;2.00;0.30;;;;;;;;;;20884141;28;20224;-86
2022/07/07 03:25:45;;;;;;;0.30;0.30;;;;;;;;;;20902294;28;20271;-88
2022/07/07 03:35:46;;;;;;;0.70;0.40;;;;;;;;;;20899445;28;20283;-87
2022/07/07 03:45:50;;;;;;;0.77;0.40;;;;;;;;;;20886857;28;20235;-87
2022/07/07 03:55:52;;;;;;;0.67;0.47;;;;;;;;;;20897282;28;20586;-86
2022/07/07 04:05:54;;;;;;;0.70;0.43;;;;;;;;;;20880311;28;20759;-87
2022/07/07 04:15:56;;;;;;;1.67;0.50;;;;;;;;;;20896524;28;20286;-86
2022/07/07 04:25:58;;;;;;;2.20;0.40;;;;;;;;;;20879146;28;20275;-87
2022/07/07 04:36:00;;;;;;;2.37;0.60;;;;;;;;;;20899634;28;20311;-87
2022/07/07 04:46:02;;;;;;;1.20;0.60;;;;;;;;;;20910315;28;20205;-87
2022/07/07 04:56:04;;;;;;;0.20;0.20;;;;;;;;;;20893671;28;20236;-88
2022/07/07 05:06:07;;;;;;;0.60;0.30;;;;;;;;;;20906852;28;20215;-86
2022/07/07 05:16:08;;;;;;;2.43;0.40;;;;;;;;;;20909426;28;20278;-87
2022/07/07 05:26:10;;;;;;;2.57;0.50;;;;;;;;;;20909747;28;20605;-87
2022/07/07 05:36:12;;;;;;;4.77;0.60;;;;;;;;;;20942550;28;20229;-86
2022/07/07 05:46:15;;;;;;;0.90;0.50;;;;;;;;;;20913794;28;20263;-87
2022/07/07 05:56:16;;;;;;;0.27;0.27;;;;;;;;;;20906180;28;20720;-87
2022/07/07 06:06:18;;;;;;;0.40;0.30;;;;;;;;;;20905549;28;20219;-87
2022/07/07 06:16:38;;;;;;;1.47;0.40;;;;;;;;;;20904170;28;20579;-86
2022/07/07 06:26:40;;;;;;;1.27;0.50;;;;;;;;;;20892892;28;20284;-86
2022/07/07 06:36:42;;;;;;;0.40;0.40;;;;;;;;;;20903084;28;20237;-86
2022/07/07 06:46:43;;;;;;;1.40;0.60;;;;;;;;;;20902018;28;20213;-86
2022/07/07 06:56:48;;;;;;;0.83;0.50;;;;;;;;;;20902497;28;20278;-87
2022/07/07 07:06:50;;;;;;;0.30;0.30;;;;;;;;;;20883751;28;20217;-87
2022/07/07 07:16:52;;;;;;;1.17;0.47;;;;;;;;;;20883665;28;20242;-87
2022/07/07 07:26:53;;;;;;;1.27;0.53;;;;;;;;;;20902911;28;20220;-86
2022/07/07 07:36:55;;;;;;;1.33;0.67;;;20.00;99.90;;;;;;20898601;28;20232;-85
2022/07/07 07:46:57;;;;;;;0.57;0.40;;;;;;;;;;20899153;28;20259;-85
2022/07/07 07:56:59;;;;;;;1.70;0.70;;;;;;;;;;20881418;28;20771;-86
2022/07/07 08:07:01;;;;;;;4.33;0.60;;;;;;;;;;20880645;28;20215;-86
2022/07/07 08:17:03;;;;;;;1.43;0.53;;;;;;;;;;20908947;28;20284;-86
2022/07/07 08:27:04;;;;;;;2.87;0.67;;;;;;;;;;20877932;28;20209;-85
2022/07/07 08:37:06;;;;;;;1.13;0.60;;;;;;;;;;20881791;28;20290;-87
2022/07/07 08:47:08;;;;;;;2.87;0.67;;;;;;;;;;20894695;28;20229;-87
2022/07/07 08:57:10;;;;;;;4.13;0.80;;;;;;;;;;20893150;28;20307;-86
2022/07/07 09:07:12;;;;;;;0.50;0.40;;;;;;;;;;20894210;28;20279;-88
2022/07/07 09:17:27;;;;;;;0.50;0.47;;;;;;;;;;20907577;28;20264;-86
2022/07/07 09:27:29;;;;;;;1.70;0.67;;;;;;;;;;20892949;28;20578;-87
2022/07/07 09:47:51;;;;;;;3.10;0.60;;;;;;;;;;20900411;28;20199;-83
2022/07/07 09:57:53;;;;;;;1.10;0.60;;;;;;;;;;20906762;28;20229;-85
2022/07/07 10:07:56;;;;;;;2.10;0.70;;;;;;;;;;20906105;28;20260;-84
2022/07/07 10:17:58;;;;;;;3.83;0.80;;;;;;;;;;20910692;28;20312;-84
2022/07/07 10:28:00;;;;;;;1.07;0.50;;;;;;;;;;20905097;28;20214;-82
2022/07/07 10:38:09;;;;;;;1.27;0.47;;;;;;;;;;20904642;28;20253;-83
2022/07/07 10:48:31;;;;;;;1.30;0.50;;;;;;;;;;20889001;28;20242;-83
2022/07/07 10:58:45;;;;;;;1.45;0.60;;;;;;;;;;20914222;28;20223;-84
2022/07/07 11:08:57;;;;;;;0.52;0.43;;;;;;;;;;20941802;28;20213;-82
2022/07/07 11:19:02;;;;;;;1.42;0.68;;;;;;;;;;20905045;28;20645;-83
2022/07/07 11:29:04;;;;;;;4.53;0.80;;;;;;;;;;20899816;28;20221;-81
2022/07/07 11:39:09;;;;;;;0.40;0.32;;;;;;;;;;20898642;28;20231;-84
2022/07/07 11:49:15;;;;;;;0.30;0.22;;;;;;;;;;20883031;28;20206;-83
2022/07/07 11:59:17;;;;;;;0.80;0.37;;;;;;;;;;20898193;28;20599;-83
2022/07/07 12:09:22;;;;;;;0.20;0.20;;;;;;;;;;20881694;28;20265;-83
2022/07/07 12:19:24;;;;;;;0.20;0.20;;;;;;;;;;20894231;28;20235;-83
2022/07/07 12:29:26;;;;;;;0.60;0.40;;;;;;;;;;20894125;28;20223;-85
2022/07/07 12:39:33;;;;;;;0.93;0.30;;;22.00;99.90;;;;;;20911262;28;20293;-84
2022/07/07 12:49:35;;;;;;;0.75;0.22;;;;;;;;;;20893711;28;20220;-84
2022/07/07 12:59:44;;;;;;;0.50;0.30;;;21.40;99.90;;;;;;20915896;28;20293;-84
2022/07/07 13:09:47;;;;;;;0.20;0.20;;;;;;;;;;20911801;28;20767;-84
2022/07/07 13:19:50;;;;;;;0.47;0.20;;;;;;;;;;20878858;28;20240;-83
2022/07/07 13:29:52;;;;;;;0.20;0.20;;;;;;;;;;20910024;28;20200;-84
2022/07/07 13:39:58;;;;;;;0.40;0.20;;;;;;;;;;20928018;28;20250;-85
2022/07/07 13:50:01;;;;;;;0.70;0.30;;;;;;;;;;20935417;28;20552;-85
2022/07/07 14:00:04;;;;;;;0.20;0.20;;;;;;;;;;20896287;28;20237;-84
2022/07/07 14:10:12;;;;;;;0.20;0.20;;;;;;;;;;20891407;28;20274;-85
2022/07/07 14:20:14;;;;;;;0.45;0.38;;;;;;;;;;20922574;28;20272;-84
2022/07/07 14:30:16;;;;;;;0.20;0.20;;;;;;;;;;20905262;28;20764;-84
2022/07/07 14:40:18;;;;;;;0.90;0.20;;;;;;;;;;20904256;28;20275;-84
2022/07/07 14:50:19;;;;;;;0.20;0.20;;;;;;;;;;20925225;28;20220;-84
2022/07/07 15:00:21;;;;;;;0.10;0.10;;;21.40;99.90;;;;;;20887670;28;20290;-83
2022/07/07 15:10:23;;;;;;;0.20;0.20;;;;;;;;;;20918007;28;20231;-85
2022/07/07 15:20:25;;;;;;;1.20;0.45;;;;;;;;;;20900660;28;20281;-84
2022/07/07 15:30:29;;;;;;;0.30;0.30;;;;;;;;;;20918214;28;20630;-84
2022/07/07 15:40:31;;;;;;;0.15;0.10;;;;;;;;;;20882380;28;20667;-84
2022/07/07 15:50:34;;;;;;;0.20;0.20;;;;;;;;;;20885928;28;20208;-83
2022/07/07 16:00:35;;;;;;;0.60;0.30;;;;;;;;;;20914737;28;20213;-84
2022/07/07 16:10:37;;;;;;;0.38;0.20;;;;;;;;;;20896859;28;20240;-84
2022/07/07 16:20:40;;;;;;;0.40;0.30;;;;;;;;;;20896279;28;20232;-85
2022/07/07 16:30:42;;;;;;;0.20;0.20;;;;;;;;;;20915084;28;20220;-85
2022/07/07 16:40:44;;;;;;;0.20;0.20;;;;;;;;;;20901171;28;20240;-85
2022/07/07 16:50:46;;;;;;;0.68;0.30;;;;;;;;;;20911024;28;20201;-84
2022/07/07 17:00:48;;;;;;;1.65;0.30;;;;;;;;;;20932335;28;20219;-85
2022/07/07 17:10:50;;;;;;;0.60;0.30;;;;;;;;;;20904447;28;20206;-84
2022/07/07 17:20:51;;;;;;;0.20;0.20;;;;;;;;;;20920944;28;20235;-84
2022/07/07 17:30:53;;;;;;;1.00;0.35;;;;;;;;;;20904365;28;20206;-84
2022/07/07 17:40:55;;;;;;;0.65;0.30;;;;;;;;;;20928237;28;20231;-85
2022/07/07 17:50:58;;;;;;;0.33;0.20;;;;;;;;;;20919419;28;20210;-83
2022/07/07 18:01:00;;;;;;;0.20;0.20;;;;;;;;;;20937156;28;20234;-85
2022/07/07 18:11:02;;;;;;;0.30;0.20;;;;;;;;;;20892559;28;20239;-84
2022/07/07 18:21:07;;;;;;;0.20;0.20;;;;;;;;;;20906559;28;20233;-85
2022/07/07 18:31:08;;;;;;;0.52;0.28;;;;;;;;;;20906231;28;20683;-86
2022/07/07 18:41:11;;;;;;;0.20;0.20;;;;;;;;;;20924464;28;20266;-85
2022/07/07 19:01:34;;;;;;;0.30;0.20;;;;;;;;;;20904333;28;20798;-85
2022/07/07 19:11:36;;;;;;;0.35;0.20;;;;;;;;;;20917831;28;20225;-85
2022/07/07 19:21:38;;;;;;;0.30;0.20;;;;;;;;;;20927034;28;20215;-85
2022/07/07 19:31:40;;;;;;;0.30;0.20;;;;;;;;;;20901529;28;20263;-84
2022/07/07 19:41:42;;;;;;;0.90;0.30;;;;;;;;;;20882825;28;20226;-86
2022/07/07 19:51:47;;;;;;;0.65;0.30;;;;;;;;;;20881891;28;20207;-86
2022/07/07 20:01:49;;;;;;;0.57;0.30;;;;;;;;;;20897128;28;20717;-85
2022/07/07 20:11:50;;;;;;;1.00;0.23;;;;;;;;;;20896655;28;20264;-85
2022/07/07 20:21:52;;;;;;;0.33;0.30;;;21.40;99.90;;;;;;20879815;28;20561;-85
2022/07/07 20:31:54;;;;;;;0.30;0.20;;;;;;;;;;20882995;28;20696;-86
2022/07/07 20:41:56;;;;;;;0.60;0.30;;;;;;;;;;20893157;28;20716;-85
2022/07/07 20:51:57;;;;;;;0.27;0.20;;;;;;;;;;20906899;28;20217;-86
2022/07/07 21:02:13;;;;;;;0.20;0.20;;;;;;;;;;20907324;28;20235;-85
2022/07/07 21:12:15;;;;;;;0.30;0.27;;;;;;;;;;20876181;28;20277;-84
2022/07/07 21:22:17;;;;;;;0.37;0.30;;;;;;;;;;20889283;28;20275;-85
2022/07/07 21:32:19;;;;;;;0.57;0.30;;;;;;;;;;20873887;28;20284;-85
2022/07/07 21:42:21;;;;;;;0.53;0.30;;;;;;;;;;20928852;28;20304;-84
2022/07/07 21:52:23;;;;;;;0.80;0.30;;;;;;;;;;20923224;28;20546;-85
2022/07/07 22:02:25;;;;;;;0.60;0.40;;;;;;;;;;20903228;28;20597;-83
2022/07/07 22:12:28;;;;;;;0.67;0.47;;;;;;;;;;20902565;28;20284;-84
2022/07/07 22:22:30;;;;;;;2.47;0.60;;;;;;;;;;20901180;28;20786;-83
2022/07/07 22:32:34;;;;;;;2.97;0.40;;;;;;;;;;20900151;28;20650;-86
2022/07/07 22:42:36;;;;;;;0.80;0.40;;;;;;;;;;20899626;28;20228;-85
2022/07/07 22:52:38;;;;;;;0.67;0.40;;;;;;;;;;20898211;28;20216;-86
2022/07/07 23:02:40;;;;;;;1.30;0.40;;;;;;;;;;20898254;28;20786;-85
2022/07/07 23:12:41;;;;;;;1.03;0.43;;;;;;;;;;20897018;28;20279;-87
2022/07/07 23:22:43;;;;;;;1.87;0.70;;;;;;;;;;20900943;28;20644;-85
2022/07/07 23:32:45;;;;;;;2.47;0.43;;;;;;;;;;20896287;28;20217;-85
2022/07/07 23:42:47;;;;;;;1.33;0.40;;;19.20;99.90;;;;;;20911652;28;20240;-84
2022/07/07 23:52:49;;;;;;;1.70;0.53;;;;;;;;;;20910387;28;20277;-85
